Mosca, CO

4:56 AM MST on December 07, 2016 (GMT -0700)
Hooper | | Change Station

Elev 7559 ft 37.73 °N, 105.87 °W | Updated 0 second ago

Mostly Cloudy
Mostly Cloudy
19.9 °F
Feels Like 8 °F
N
12.0
Wind Variable Wind from NNW
Gusts 19.0 mph

Today
High -- | Low -- °F
--% Chance of Precip.
Yesterday
High -- | Low -- °F
Precip. -- in
Pressure 29.88 in
Visibility 10.0 miles
Clouds Mostly Cloudy 4400 ft
Mostly Cloudy 7000 ft
Windchill 8 °F
Dew Point 10 °F
Humidity 66%
Rainfall 0.00 in
Snow Depth Not available.
7:05 AM 4:44 PM
First Quarter, 51% visible
METAR KALS 071152Z AUTO 34011G15KT 10SM BKN044 BKN070 M07/M10 A2981 RMK AO2 PK WND 34028/1108 WSHFT 1059 SLP117 T10721100 11006 21072 53024
Pressure 29.88 in
Visibility 10.0 miles
Clouds Mostly Cloudy 4400 ft
Mostly Cloudy 7000 ft
Windchill 8 °F
Dew Point 10 °F
Humidity 66%
Rainfall 0.00 in
Snow Depth Not available.
7:05 AM 4:44 PM
First Quarter, 51% visible
METAR KALS 071152Z AUTO 34011G15KT 10SM BKN044 BKN070 M07/M10 A2981 RMK AO2 PK WND 34028/1108 WSHFT 1059 SLP117 T10721100 11006 21072 53024

10-Day Weather Forecast

Almanac

Astronomy

Dec. 07, 2016 Rise Set
Actual Time
Civil Twilight
Nautical Twilight
Astronomical Twilight
Moon
Length of Visible Light
Length of Day
Tomorrow will be .
, % of the Moon is Illuminated

Today's Extremes

State Highs State Lows

Community

WunderPhotos

Upload Photos

1,956,111 photos uploaded!

WunderBlog® & News

Nearby

Air Quality

  Air Quality AQ Index Pollutant
Not available.

Snow Depth

Station Depth Elevation

Earthquake Activity

City Distance Mag. Time & Date
Minimum magnitude displayed is 2.5.

Coastal Water Temperatures

Place Temperature

Stations

Nearby Weather Stations

Station Location Temp. Windchill Dew Point Humidity Wind Precip. Elev Updated Type
                   

Watches & Warnings

There are currently no watches in effect.